Time;durP1;ratioP1;P1;durP2;ratioP2;P2;SDS_P1;SDS_P2;PMS_P1;PMS_P2;Temp;Humidity;BMP_temperature;BMP_pressure;BME280_temperature;BME280_humidity;BME280_pressure;Samples;Min_cycle;Max_cycle;Signal;HPM_P1;HPM_P2
2021/09/05 00:00:51;;;;;;;16.50;8.20;;;11.10;99.90;;;;;;7371847;19;20495;-67
2021/09/05 00:03:17;;;;;;;21.30;8.93;;;11.20;99.90;;;;;;7373161;19;20029;-67
2021/09/05 00:05:42;;;;;;;18.70;8.15;;;11.10;99.90;;;;;;7374258;19;20050;-67
2021/09/05 00:08:08;;;;;;;22.05;8.75;;;11.10;99.90;;;;;;7372887;19;20022;-67
2021/09/05 00:10:33;;;;;;;15.30;7.78;;;11.00;99.90;;;;;;7372785;19;20027;-67
2021/09/05 00:12:59;;;;;;;17.27;8.13;;;11.00;99.90;;;;;;7372233;19;20018;-67
2021/09/05 00:15:24;;;;;;;17.73;8.18;;;11.00;99.90;;;;;;7373387;19;20042;-67
2021/09/05 00:17:50;;;;;;;16.35;8.55;;;11.00;99.90;;;;;;7372740;19;20022;-67
2021/09/05 00:20:15;;;;;;;21.17;9.00;;;10.90;99.90;;;;;;7370416;19;20018;-67
2021/09/05 00:22:41;;;;;;;14.85;8.50;;;10.90;99.90;;;;;;7372039;19;20022;-67
2021/09/05 00:25:07;;;;;;;23.23;8.85;;;10.90;99.90;;;;;;7372829;19;20029;-67
2021/09/05 00:27:33;;;;;;;24.20;9.52;;;10.80;99.90;;;;;;7369785;19;20018;-67
2021/09/05 00:29:58;;;;;;;19.98;8.80;;;10.80;99.90;;;;;;7370494;19;20018;-67
2021/09/05 00:32:24;;;;;;;15.98;9.30;;;10.70;99.90;;;;;;7368135;19;20023;-66
2021/09/05 00:34:49;;;;;;;18.85;9.00;;;10.70;99.90;;;;;;7371805;19;20017;-67
2021/09/05 00:37:21;;;;;;;15.15;8.77;;;10.60;99.90;;;;;;7369688;19;20046;-67
2021/09/05 00:39:46;;;;;;;20.30;8.75;;;10.60;99.90;;;;;;7370122;19;20022;-67
2021/09/05 00:42:12;;;;;;;23.02;8.48;;;10.60;99.90;;;;;;7367557;19;20026;-67
2021/09/05 00:44:37;;;;;;;16.73;9.10;;;10.50;99.90;;;;;;7369194;19;20030;-67
2021/09/05 00:47:03;;;;;;;20.48;8.93;;;10.50;99.90;;;;;;7370651;19;21062;-67
2021/09/05 00:49:28;;;;;;;16.48;8.20;;;10.50;99.90;;;;;;7368055;19;20019;-67
2021/09/05 00:51:54;;;;;;;18.30;8.82;;;10.40;99.90;;;;;;7369855;19;20030;-67
2021/09/05 00:54:20;;;;;;;22.33;10.07;;;10.30;99.90;;;;;;7370304;19;20106;-67
2021/09/05 00:56:46;;;;;;;17.98;8.80;;;10.30;99.90;;;;;;7371639;19;20022;-67
2021/09/05 00:59:19;;;;;;;17.35;8.85;;;10.40;99.90;;;;;;7371576;19;20521;-67
2021/09/05 01:01:45;;;;;;;18.35;9.10;;;10.30;99.90;;;;;;7369315;19;20375;-67
2021/09/05 01:04:13;;;;;;;19.40;8.77;;;10.20;99.90;;;;;;7371026;19;20039;-67
2021/09/05 01:06:39;;;;;;;16.98;9.38;;;10.20;99.90;;;;;;7369604;19;20027;-67
2021/09/05 01:09:06;;;;;;;17.40;8.52;;;10.20;99.90;;;;;;7370094;19;20909;-67
2021/09/05 01:11:32;;;;;;;18.95;9.65;;;10.20;99.90;;;;;;7370959;19;20022;-67
2021/09/05 01:13:58;;;;;;;17.92;9.55;;;10.20;99.90;;;;;;7379772;19;20039;-67
2021/09/05 01:16:27;;;;;;;19.50;9.70;;;10.20;99.90;;;;;;7378210;19;20022;-67
2021/09/05 01:19:02;;;;;;;23.73;9.80;;;10.30;99.90;;;;;;7374988;19;20725;-67
2021/09/05 01:21:47;;;;;;;22.48;9.95;;;10.30;99.90;;;;;;7377250;19;20054;-67
2021/09/05 01:24:31;;;;;;;23.23;10.48;;;10.50;99.90;;;;;;7379968;19;20025;-67
2021/09/05 01:27:35;;;;;;;16.42;9.60;;;10.60;99.90;;;;;;7378496;19;20046;-67
2021/09/05 01:30:38;;;;;;;14.77;9.15;;;10.60;99.90;;;;;;7377727;19;20025;-67
2021/09/05 01:33:09;;;;;;;15.85;9.43;;;10.60;99.90;;;;;;7380008;19;20021;-67
2021/09/05 01:36:01;;;;;;;18.58;9.15;;;10.70;99.90;;;;;;7378429;19;20771;-67
2021/09/05 01:38:46;;;;;;;;;;;10.80;99.90;;;;;;7376389;19;20022;-67
2021/09/05 01:41:32;;;;;;;16.52;8.73;;;10.80;99.90;;;;;;7372078;19;19999;-67
2021/09/05 01:44:16;;;;;;;18.95;9.80;;;10.90;99.90;;;;;;7380378;19;20031;-67
2021/09/05 01:47:00;;;;;;;17.10;8.45;;;11.00;99.90;;;;;;7377901;19;20057;-67
2021/09/05 01:49:44;;;;;;;18.05;8.77;;;11.00;99.90;;;;;;7380197;19;20025;-67
2021/09/05 01:52:37;;;;;;;20.73;9.75;;;11.00;99.90;;;;;;7373371;19;20018;-67
2021/09/05 01:55:23;;;;;;;21.70;9.07;;;11.10;99.90;;;;;;7378787;19;20025;-67
2021/09/05 01:58:07;;;;;;;25.38;10.35;;;11.10;99.90;;;;;;7377703;19;20050;-67
2021/09/05 02:00:52;;;;;;;24.27;10.30;;;11.20;99.90;;;;;;7377100;19;20018;-67
2021/09/05 02:03:39;;;;;;;23.92;9.57;;;11.20;99.90;;;;;;7374509;19;20034;-67
2021/09/05 02:06:28;;;;;;;24.85;10.50;;;11.30;99.90;;;;;;7376484;19;20019;-67
2021/09/05 02:09:13;;;;;;;33.55;11.18;;;11.40;99.90;;;;;;7375600;19;20040;-67
2021/09/05 02:12:01;;;;;;;36.17;12.00;;;11.40;99.90;;;;;;7373471;19;20021;-67
2021/09/05 02:14:50;;;;;;;36.85;11.68;;;11.40;99.90;;;;;;7375003;19;20051;-67
2021/09/05 02:17:34;;;;;;;33.38;13.05;;;11.50;99.90;;;;;;7377114;19;20351;-67
2021/09/05 02:20:18;;;;;;;43.95;12.48;;;11.60;99.90;;;;;;7375102;19;20019;-67
2021/09/05 02:23:08;;;;;;;37.65;13.25;;;11.60;99.90;;;;;;7372181;19;20052;-67
2021/09/05 02:26:01;;;;;;;55.90;15.90;;;11.60;99.90;;;;;;7373654;19;20040;-67
2021/09/05 02:28:45;;;;;;;40.13;12.43;;;11.70;99.90;;;;;;7376727;19;20054;-67
2021/09/05 02:31:33;;;;;;;42.63;13.60;;;11.70;99.90;;;;;;7374121;19;20018;-67
2021/09/05 02:34:25;;;;;;;43.45;14.43;;;;;;;;;;7377091;19;20022;-67
2021/09/05 02:37:11;;;;;;;38.70;13.65;;;11.90;99.90;;;;;;7372843;19;20015;-67
2021/09/05 02:39:52;;;;;;;59.17;17.15;;;11.90;99.90;;;;;;7372984;19;20784;-67
2021/09/05 02:42:40;;;;;;;49.80;15.52;;;12.00;99.90;;;;;;7370686;19;20383;-67
2021/09/05 02:45:24;;;;;;;55.90;16.75;;;12.00;99.90;;;;;;7377858;19;20112;-67
2021/09/05 02:48:09;;;;;;;44.30;15.75;;;12.10;99.90;;;;;;7374582;19;20038;-67
2021/09/05 02:50:53;;;;;;;45.53;16.17;;;12.10;99.90;;;;;;7377319;19;20058;-67
2021/09/05 02:53:34;;;;;;;61.42;17.15;;;12.10;99.90;;;;;;7374379;19;20053;-67
2021/09/05 02:56:15;;;;;;;45.38;14.57;;;12.20;99.90;;;;;;7373397;19;20015;-67
2021/09/05 02:59:03;;;;;;;59.90;16.33;;;12.20;99.90;;;;;;7370896;19;20061;-67
2021/09/05 03:01:46;;;;;;;48.58;15.65;;;12.20;99.90;;;;;;7370524;19;20024;-67
2021/09/05 03:04:35;;;;;;;51.78;15.00;;;12.20;99.90;;;;;;7372942;19;20479;-67
2021/09/05 03:07:19;;;;;;;39.95;14.25;;;12.20;99.90;;;;;;7377942;19;20039;-67
2021/09/05 03:10:09;;;;;;;42.95;15.23;;;12.20;99.90;;;;;;7372228;19;20018;-67
2021/09/05 03:12:56;;;;;;;;;;;;;;;;;;7375461;19;20352;-67
2021/09/05 03:15:21;;;;;;;43.47;15.63;;;12.20;99.90;;;;;;7376755;19;19922;-67
2021/09/05 03:18:05;;;;;;;45.47;16.38;;;12.20;99.90;;;;;;7374793;19;20356;-67
2021/09/05 03:20:51;;;;;;;49.58;17.17;;;;;;;;;;7374855;19;20010;-67
2021/09/05 03:23:34;;;;;;;48.80;16.85;;;12.30;99.90;;;;;;7372717;19;20018;-67
2021/09/05 03:26:20;;;;;;;43.28;16.98;;;;;;;;;;7375974;19;20029;-67
2021/09/05 03:29:06;;;;;;;49.03;18.33;;;12.30;99.90;;;;;;7373354;19;20022;-67
2021/09/05 03:31:55;;;;;;;46.17;17.60;;;12.30;99.90;;;;;;7371701;19;20030;-67
2021/09/05 03:34:52;;;;;;;51.67;18.27;;;12.30;99.90;;;;;;7369126;19;20636;-67
2021/09/05 03:37:41;;;;;;;36.20;15.40;;;12.30;99.90;;;;;;7373849;19;20612;-67
2021/09/05 03:40:29;;;;;;;38.97;14.63;;;12.40;99.90;;;;;;7370016;19;20509;-67
2021/09/05 03:43:20;;;;;;;32.58;14.45;;;12.40;99.90;;;;;;7374125;19;20010;-67
2021/09/05 03:46:01;;;;;;;37.85;16.13;;;12.40;99.90;;;;;;7370132;19;20549;-67
2021/09/05 03:48:47;;;;;;;35.60;15.98;;;12.40;99.90;;;;;;7372936;19;20024;-67
2021/09/05 03:51:12;;;;;;;32.90;15.38;;;12.40;99.90;;;;;;7369952;19;20027;-67
2021/09/05 03:53:45;;;;;;;34.85;16.48;;;12.50;99.90;;;;;;7370507;19;20028;-67
2021/09/05 03:56:13;;;;;;;34.60;15.45;;;;;;;;;;7369819;19;20483;-67
2021/09/05 03:58:38;;;;;;;36.42;16.08;;;12.40;99.90;;;;;;7370002;19;20021;-67
2021/09/05 04:01:03;;;;;;;36.65;16.77;;;12.50;99.90;;;;;;7369649;19;20624;-67
2021/09/05 04:03:33;;;;;;;41.42;17.00;;;;;;;;;;7371232;19;20026;-67
2021/09/05 04:05:59;;;;;;;39.45;16.02;;;12.50;99.90;;;;;;7373529;19;20014;-67
2021/09/05 04:09:08;;;;;;;40.38;17.08;;;;;;;;;;7368676;19;20019;-67
2021/09/05 04:11:17;;;;;;;32.55;14.85;;;12.40;99.90;;;;;;7372307;19;20018;-67
2021/09/05 04:13:43;;;;;;;40.28;15.98;;;12.50;99.90;;;;;;7371612;19;20014;-67
2021/09/05 04:16:08;;;;;;;37.17;16.45;;;12.50;99.90;;;;;;7373280;19;20499;-67
2021/09/05 04:18:34;;;;;;;37.30;16.33;;;12.50;99.90;;;;;;7370659;19;20010;-67
2021/09/05 04:20:59;;;;;;;41.67;16.60;;;12.50;99.90;;;;;;7373168;19;20015;-67
2021/09/05 04:23:25;;;;;;;39.97;17.40;;;12.50;99.90;;;;;;7372176;19;20136;-67
2021/09/05 04:25:50;;;;;;;41.83;17.77;;;12.50;99.90;;;;;;7373927;19;20025;-67
2021/09/05 04:28:16;;;;;;;38.45;17.58;;;12.60;99.90;;;;;;7372289;19;20006;-67
2021/09/05 04:30:41;;;;;;;43.45;19.10;;;12.50;99.90;;;;;;7372152;19;20018;-66
2021/09/05 04:33:07;;;;;;;39.72;17.30;;;12.50;99.90;;;;;;7372326;19;20018;-67
2021/09/05 04:35:33;;;;;;;40.08;17.75;;;;;;;;;;7372265;19;20052;-66
2021/09/05 04:37:58;;;;;;;45.00;18.90;;;12.40;99.90;;;;;;7372131;19;20010;-67
2021/09/05 04:40:24;;;;;;;34.40;17.60;;;12.60;99.90;;;;;;7370290;19;20014;-66
2021/09/05 04:42:49;;;;;;;38.15;18.00;;;12.50;99.90;;;;;;7370511;19;20014;-66
2021/09/05 04:45:15;;;;;;;40.65;19.42;;;12.50;99.90;;;;;;7370763;19;20019;-66
2021/09/05 04:47:40;;;;;;;37.83;17.95;;;12.50;99.90;;;;;;7369439;19;20014;-67
2021/09/05 04:50:06;;;;;;;42.08;19.25;;;12.40;99.90;;;;;;7367872;19;20022;-67
2021/09/05 04:52:31;;;;;;;42.40;19.58;;;12.50;99.90;;;;;;7366494;19;20357;-66
2021/09/05 04:54:56;;;;;;;54.40;19.60;;;12.50;99.90;;;;;;7372589;19;20038;-66
2021/09/05 04:57:22;;;;;;;38.08;18.70;;;12.50;99.90;;;;;;7371821;19;20019;-66
2021/09/05 04:59:47;;;;;;;40.40;18.98;;;12.60;99.90;;;;;;7368995;19;20019;-68
2021/09/05 05:02:13;;;;;;;41.25;18.95;;;12.60;99.90;;;;;;7371012;19;20629;-67
2021/09/05 05:04:38;;;;;;;48.65;21.55;;;12.60;99.90;;;;;;7370781;19;20018;-67
2021/09/05 05:07:04;;;;;;;44.75;20.33;;;12.60;99.90;;;;;;7370504;19;20744;-67
2021/09/05 05:09:30;;;;;;;38.67;19.17;;;12.60;99.90;;;;;;7369882;19;20126;-66
2021/09/05 05:11:55;;;;;;;39.63;19.83;;;12.60;99.90;;;;;;7370074;19;20018;-65
2021/09/05 05:14:20;;;;;;;38.53;19.05;;;12.60;99.90;;;;;;7371468;19;20011;-67
2021/09/05 05:16:46;;;;;;;46.03;19.27;;;12.60;99.90;;;;;;7370717;19;20642;-67
2021/09/05 05:19:12;;;;;;;39.85;18.20;;;12.60;99.90;;;;;;7369938;19;20021;-67
2021/09/05 05:21:37;;;;;;;35.08;16.60;;;12.60;99.90;;;;;;7366843;19;20010;-67
2021/09/05 05:24:03;;;;;;;32.92;16.08;;;12.60;99.90;;;;;;7372140;19;20018;-67
2021/09/05 05:26:28;;;;;;;31.05;15.48;;;12.60;99.90;;;;;;7371397;19;20010;-67
2021/09/05 05:28:54;;;;;;;31.75;16.42;;;12.60;99.90;;;;;;7368954;19;20019;-67
2021/09/05 05:31:19;;;;;;;31.42;15.38;;;12.60;99.90;;;;;;7368814;19;20011;-67
2021/09/05 05:33:44;;;;;;;29.52;16.15;;;12.70;99.90;;;;;;7368949;19;20044;-67
2021/09/05 05:36:10;;;;;;;33.85;14.93;;;12.70;99.90;;;;;;7370443;19;20019;-67
2021/09/05 05:38:35;;;;;;;27.73;15.23;;;12.70;99.90;;;;;;7367385;19;20029;-67
2021/09/05 05:41:01;;;;;;;34.03;15.77;;;12.70;99.90;;;;;;7367179;19;20825;-67
2021/09/05 05:43:26;;;;;;;29.98;14.57;;;12.80;99.90;;;;;;7367446;19;20026;-66
2021/09/05 05:45:52;;;;;;;30.02;13.90;;;12.90;99.90;;;;;;7366886;19;20010;-68
2021/09/05 05:48:18;;;;;;;28.75;14.75;;;13.00;99.90;;;;;;7369875;19;20014;-68
2021/09/05 05:50:45;;;;;;;28.30;14.80;;;13.10;99.90;;;;;;7368362;19;20070;-68
2021/09/05 05:53:10;;;;;;;28.88;13.93;;;13.10;99.90;;;;;;7369191;19;20356;-67
2021/09/05 05:55:36;;;;;;;24.88;13.13;;;13.10;99.90;;;;;;7370795;19;20020;-67
2021/09/05 05:58:01;;;;;;;24.55;13.27;;;13.10;99.90;;;;;;7372680;19;20018;-67
2021/09/05 06:00:27;;;;;;;25.75;14.43;;;13.20;99.90;;;;;;7376216;19;20011;-67
2021/09/05 06:02:53;;;;;;;25.60;14.52;;;13.20;99.90;;;;;;7374957;19;20113;-68
2021/09/05 06:05:18;;;;;;;22.48;13.20;;;13.30;99.90;;;;;;7377813;19;20042;-68
2021/09/05 06:07:43;;;;;;;27.98;14.52;;;13.30;99.90;;;;;;7376143;19;20014;-68
2021/09/05 06:10:09;;;;;;;28.70;14.38;;;13.30;99.90;;;;;;7372949;19;20048;-68
2021/09/05 06:12:35;;;;;;;22.58;11.95;;;13.30;99.90;;;;;;7376185;19;20113;-67
2021/09/05 06:15:00;;;;;;;24.70;12.70;;;13.40;99.90;;;;;;7375258;19;20059;-66
2021/09/05 06:17:25;;;;;;;23.52;13.18;;;13.40;99.90;;;;;;7376924;19;20015;-66
2021/09/05 06:19:51;;;;;;;26.42;12.93;;;13.50;99.90;;;;;;7377537;19;20023;-66
2021/09/05 06:22:17;;;;;;;22.77;12.27;;;13.50;99.90;;;;;;7372346;19;20014;-66
2021/09/05 06:24:42;;;;;;;28.13;12.65;;;13.60;99.90;;;;;;7376410;19;20107;-66
2021/09/05 06:27:08;;;;;;;26.45;12.40;;;13.70;99.90;;;;;;7374026;19;20545;-67
2021/09/05 06:29:33;;;;;;;28.08;12.23;;;13.80;99.90;;;;;;7377001;19;20014;-67
2021/09/05 06:31:59;;;;;;;26.20;13.68;;;13.70;99.90;;;;;;7374640;19;20467;-67
2021/09/05 06:34:24;;;;;;;25.63;12.68;;;13.70;99.90;;;;;;7372517;19;20019;-67
2021/09/05 06:36:50;;;;;;;24.48;12.55;;;13.90;99.90;;;;;;7375966;19;20010;-67
2021/09/05 06:39:15;;;;;;;23.23;11.73;;;13.90;99.90;;;;;;7374924;19;20766;-67
2021/09/05 06:41:41;;;;;;;25.08;11.45;;;14.00;99.90;;;;;;7373909;19;20081;-67
2021/09/05 06:44:06;;;;;;;24.38;12.07;;;14.30;99.90;;;;;;7374965;19;20019;-67
2021/09/05 06:46:32;;;;;;;21.42;11.73;;;14.30;99.90;;;;;;7375814;19;20017;-66
2021/09/05 06:48:57;;;;;;;47.65;23.15;;;14.30;99.90;;;;;;7376236;19;20022;-67
2021/09/05 06:51:24;;;;;;;28.02;12.65;;;14.50;99.90;;;;;;7371847;19;20054;-68
2021/09/05 06:53:49;;;;;;;25.42;11.85;;;14.60;99.90;;;;;;7376819;19;20454;-66
2021/09/05 06:56:15;;;;;;;22.20;11.52;;;14.60;99.90;;;;;;7375494;19;20015;-67
2021/09/05 06:58:41;;;;;;;21.75;11.02;;;14.70;99.90;;;;;;7373996;19;20749;-67
2021/09/05 07:01:06;;;;;;;23.10;10.35;;;14.80;99.90;;;;;;7375571;19;20014;-68
2021/09/05 07:03:32;;;;;;;23.65;10.23;;;14.80;99.90;;;;;;7374224;19;20495;-68
2021/09/05 07:05:57;;;;;;;20.90;9.70;;;14.80;99.90;;;;;;7375076;19;20486;-68
2021/09/05 07:08:23;;;;;;;22.67;10.00;;;14.90;99.90;;;;;;7368603;19;20033;-68
2021/09/05 07:10:48;;;;;;;24.30;12.07;;;14.80;99.90;;;;;;7373284;19;20010;-68
2021/09/05 07:13:14;;;;;;;34.55;16.52;;;14.80;99.90;;;;;;7374011;19;20006;-67
2021/09/05 07:15:39;;;;;;;30.23;12.10;;;14.60;99.90;;;;;;7371861;19;20018;-67
2021/09/05 07:18:05;;;;;;;22.70;9.68;;;14.60;99.90;;;;;;7370314;19;20025;-68
2021/09/05 07:20:30;;;;;;;27.02;11.57;;;14.50;99.90;;;;;;7370095;19;20015;-67
2021/09/05 07:22:56;;;;;;;26.55;10.68;;;14.50;99.90;;;;;;7366077;19;20031;-67
2021/09/05 07:25:21;;;;;;;19.90;10.07;;;14.60;99.90;;;;;;7368594;19;20018;-67
2021/09/05 07:27:47;;;;;;;20.70;9.63;;;14.70;99.90;;;;;;7365785;19;20018;-67
2021/09/05 07:30:13;;;;;;;21.52;9.52;;;14.90;99.90;;;;;;7367791;19;20015;-67
2021/09/05 07:32:38;;;;;;;20.67;9.48;;;15.00;99.90;;;;;;7361094;19;20021;-67
2021/09/05 07:35:03;;;;;;;22.02;9.70;;;15.10;99.90;;;;;;7366010;19;20014;-67
2021/09/05 07:37:29;;;;;;;22.13;10.55;;;15.10;99.90;;;;;;7367900;19;20031;-67
2021/09/05 07:39:55;;;;;;;19.33;9.90;;;15.40;99.90;;;;;;7372657;19;20119;-67
2021/09/05 07:42:20;;;;;;;17.15;8.60;;;15.60;99.90;;;;;;7371068;19;20019;-67
2021/09/05 07:44:45;;;;;;;24.40;11.48;;;15.70;99.90;;;;;;7371253;19;20049;-67
2021/09/05 07:47:11;;;;;;;23.65;10.30;;;15.80;99.90;;;;;;7372452;19;20522;-67
2021/09/05 07:49:36;;;;;;;24.13;10.95;;;15.80;99.90;;;;;;7371465;19;20109;-67
2021/09/05 07:52:02;;;;;;;17.92;9.35;;;15.90;99.90;;;;;;7371000;19;20050;-67
2021/09/05 07:54:27;;;;;;;23.92;9.82;;;16.10;99.90;;;;;;7372809;19;20019;-67
2021/09/05 07:56:53;;;;;;;18.70;9.40;;;16.40;99.90;;;;;;7370128;19;20491;-67
2021/09/05 07:59:18;;;;;;;20.75;9.10;;;16.50;99.90;;;;;;7371601;19;20014;-67
2021/09/05 08:01:44;;;;;;;19.42;9.52;;;16.60;99.90;;;;;;7369675;19;20035;-67
2021/09/05 08:04:09;;;;;;;23.20;8.32;;;16.60;99.90;;;;;;7373699;19;20015;-67
2021/09/05 08:06:35;;;;;;;24.67;10.07;;;16.60;99.90;;;;;;7371071;19;20021;-67
2021/09/05 08:09:00;;;;;;;20.30;8.85;;;16.90;99.90;;;;;;7370983;19;20467;-67
2021/09/05 08:11:26;;;;;;;15.30;8.80;;;17.00;99.90;;;;;;7369777;19;21201;-67
2021/09/05 08:13:51;;;;;;;21.50;9.35;;;17.00;99.90;;;;;;7367386;19;20010;-67
2021/09/05 08:16:17;;;;;;;23.80;9.57;;;17.10;99.90;;;;;;7373163;19;20042;-67
2021/09/05 08:18:42;;;;;;;22.02;9.32;;;17.30;99.90;;;;;;7370136;19;20011;-68
2021/09/05 08:21:08;;;;;;;18.13;8.40;;;17.50;99.90;;;;;;7367544;19;20018;-67
2021/09/05 08:23:33;;;;;;;18.08;9.20;;;17.70;99.90;;;;;;7372532;19;20014;-67
2021/09/05 08:25:59;;;;;;;19.98;10.43;;;17.80;99.90;;;;;;7370416;19;20029;-66
2021/09/05 08:28:24;;;;;;;25.50;13.20;;;17.90;99.90;;;;;;7369858;19;20840;-67
2021/09/05 08:30:50;;;;;;;36.97;15.85;;;18.10;99.90;;;;;;7370953;19;20992;-67
2021/09/05 08:33:16;;;;;;;21.48;10.45;;;18.30;99.90;;;;;;7372419;19;20129;-67
2021/09/05 08:35:41;;;;;;;19.27;8.13;;;18.30;99.90;;;;;;7371751;19;20077;-67
2021/09/05 08:38:08;;;;;;;17.42;7.90;;;18.30;99.90;;;;;;7370550;19;20035;-67
2021/09/05 08:40:33;;;;;;;20.50;8.95;;;18.50;99.90;;;;;;7372120;19;20495;-67
2021/09/05 08:42:59;;;;;;;16.40;7.63;;;18.60;99.90;;;;;;7367353;19;20035;-67
2021/09/05 08:45:24;;;;;;;17.15;7.97;;;18.80;99.90;;;;;;7373766;19;20097;-67
2021/09/05 08:47:50;;;;;;;23.15;8.90;;;18.70;99.90;;;;;;7372650;19;20018;-67
2021/09/05 08:50:15;;;;;;;16.27;7.32;;;18.90;99.90;;;;;;7368699;19;20025;-67
2021/09/05 08:52:41;;;;;;;21.80;9.07;;;19.10;99.90;;;;;;7370718;19;20019;-67
2021/09/05 08:55:06;;;;;;;22.25;8.65;;;19.20;99.90;;;;;;7370442;19;20015;-67
2021/09/05 08:57:32;;;;;;;14.27;8.10;;;19.50;99.90;;;;;;7370447;19;20018;-67
2021/09/05 08:59:57;;;;;;;16.63;8.20;;;19.60;99.90;;;;;;7370566;19;20340;-67
2021/09/05 09:02:23;;;;;;;20.60;8.48;;;19.70;99.90;;;;;;7369532;19;20014;-67
2021/09/05 09:04:50;;;;;;;19.33;10.15;;;19.60;99.90;;;;;;7370794;19;20720;-67
2021/09/05 09:07:15;;;;;;;22.85;9.63;;;19.30;99.90;;;;;;7368706;19;20035;-67
2021/09/05 09:09:41;;;;;;;21.02;10.30;;;19.30;99.90;;;;;;7371142;19;20062;-67
2021/09/05 09:12:06;;;;;;;22.15;9.85;;;19.30;99.90;;;;;;7366753;19;20669;-67
2021/09/05 09:14:32;;;;;;;22.48;9.88;;;19.50;99.90;;;;;;7369846;19;20085;-67
2021/09/05 09:16:57;;;;;;;23.45;9.38;;;19.80;99.90;;;;;;7367516;19;20011;-67
2021/09/05 09:19:23;;;;;;;18.77;9.27;;;20.40;99.90;;;;;;7367857;19;20022;-67
2021/09/05 09:21:48;;;;;;;19.55;9.25;;;20.30;99.90;;;;;;7369213;19;20621;-67
2021/09/05 09:24:21;;;;;;;22.10;10.57;;;20.10;99.90;;;;;;7368220;19;20014;-67
2021/09/05 09:26:47;;;;;;;18.35;9.43;;;20.30;99.90;;;;;;7369847;19;20390;-67
2021/09/05 09:29:12;;;;;;;20.67;10.07;;;20.10;99.90;;;;;;7367438;19;20606;-67
2021/09/05 09:31:38;;;;;;;19.48;10.07;;;20.00;99.90;;;;;;7367921;19;20025;-67
2021/09/05 09:34:04;;;;;;;18.55;9.70;;;19.90;99.90;;;;;;7374972;19;20024;-67
2021/09/05 09:36:29;;;;;;;21.35;10.50;;;19.70;99.90;;;;;;7377017;19;20046;-67
2021/09/05 09:38:55;;;;;;;20.23;9.50;;;19.70;99.90;;;;;;7377831;19;20014;-67
2021/09/05 09:41:20;;;;;;;17.35;10.02;;;19.70;99.90;;;;;;7373143;19;20082;-67
2021/09/05 09:43:46;;;;;;;14.68;8.75;;;19.70;99.90;;;;;;7378400;19;20018;-67
2021/09/05 09:46:11;;;;;;;21.30;9.65;;;19.70;99.90;;;;;;7378167;19;20068;-67
2021/09/05 09:48:37;;;;;;;17.60;9.65;;;19.90;99.90;;;;;;7373245;19;20018;-67
2021/09/05 09:51:03;;;;;;;20.02;10.38;;;19.70;99.90;;;;;;7377013;19;20033;-67
2021/09/05 09:53:28;;;;;;;15.05;8.82;;;19.80;99.90;;;;;;7374991;19;20101;-67
2021/09/05 09:55:54;;;;;;;18.08;9.45;;;20.30;99.90;;;;;;7376519;19;20044;-67
2021/09/05 09:58:19;;;;;;;16.90;9.25;;;20.40;99.90;;;;;;7372785;19;20022;-67
2021/09/05 10:00:45;;;;;;;18.23;9.45;;;20.50;99.90;;;;;;7375169;19;20061;-67
2021/09/05 10:03:10;;;;;;;16.15;8.73;;;20.50;99.90;;;;;;7373242;19;20025;-67
2021/09/05 10:05:36;;;;;;;18.23;9.35;;;20.60;99.90;;;;;;7374312;19;20051;-67
2021/09/05 10:08:01;;;;;;;23.58;10.15;;;20.70;99.90;;;;;;7375908;19;20393;-67
2021/09/05 10:10:27;;;;;;;19.95;8.77;;;20.80;99.90;;;;;;7372684;19;20055;-67
2021/09/05 10:12:52;;;;;;;16.17;8.63;;;20.70;99.90;;;;;;7370213;19;20117;-67
2021/09/05 10:15:18;;;;;;;18.33;9.73;;;20.60;99.90;;;;;;7374538;19;20514;-67
2021/09/05 10:17:44;;;;;;;17.52;8.98;;;20.30;99.90;;;;;;7372182;19;20034;-67
2021/09/05 10:20:09;;;;;;;18.92;9.90;;;20.30;99.90;;;;;;7374723;19;20026;-67
2021/09/05 10:22:35;;;;;;;14.30;9.05;;;20.40;99.90;;;;;;7371991;19;20786;-67
2021/09/05 10:25:00;;;;;;;14.88;9.23;;;20.80;99.90;;;;;;7375147;19;20094;-67
2021/09/05 10:27:26;;;;;;;18.05;9.77;;;20.80;99.90;;;;;;7372276;19;20026;-67
2021/09/05 10:29:51;;;;;;;15.40;8.93;;;20.20;99.90;;;;;;7372954;19;20029;-67
2021/09/05 10:32:17;;;;;;;18.63;9.57;;;20.00;99.90;;;;;;7372923;19;20026;-67
2021/09/05 10:34:42;;;;;;;16.10;9.85;;;20.20;99.90;;;;;;7372232;19;20026;-67
2021/09/05 10:37:08;;;;;;;17.83;9.18;;;20.40;99.90;;;;;;7373664;19;20112;-67
2021/09/05 10:39:33;;;;;;;22.38;9.88;;;20.50;99.90;;;;;;7372879;19;20014;-67
2021/09/05 10:41:59;;;;;;;16.92;9.15;;;20.30;99.90;;;;;;7368832;19;20018;-67
2021/09/05 10:44:24;;;;;;;17.73;9.85;;;20.30;99.90;;;;;;7371942;19;20030;-67
2021/09/05 10:46:51;;;;;;;18.48;9.52;;;20.40;99.90;;;;;;7370339;19;20026;-67
2021/09/05 10:49:16;;;;;;;19.20;10.15;;;20.40;99.90;;;;;;7373513;19;20023;-67
2021/09/05 10:51:42;;;;;;;17.23;9.15;;;20.30;99.90;;;;;;7372976;19;20046;-67
2021/09/05 10:54:07;;;;;;;16.45;9.02;;;20.20;99.90;;;;;;7371806;19;20033;-67
2021/09/05 10:56:33;;;;;;;18.05;9.70;;;20.40;99.90;;;;;;7371174;19;20018;-66
2021/09/05 10:58:58;;;;;;;17.98;9.70;;;20.40;99.90;;;;;;7371641;19;20867;-68
2021/09/05 11:01:24;;;;;;;19.25;10.35;;;20.30;99.90;;;;;;7373175;19;20022;-68
2021/09/05 11:03:49;;;;;;;17.27;10.52;;;20.40;99.90;;;;;;7373579;19;20673;-68
2021/09/05 11:06:15;;;;;;;20.40;10.65;;;20.10;99.90;;;;;;7368912;19;20051;-68
2021/09/05 11:08:40;;;;;;;17.27;10.00;;;20.00;99.90;;;;;;7373022;19;20565;-68
2021/09/05 11:11:06;;;;;;;19.88;10.98;;;19.90;99.90;;;;;;7371819;19;20026;-70
2021/09/05 11:13:32;;;;;;;15.85;9.23;;;19.50;99.90;;;;;;7373871;19;20014;-68
2021/09/05 11:15:57;;;;;;;18.42;9.13;;;19.50;99.90;;;;;;7372817;19;20787;-68
2021/09/05 11:18:24;;;;;;;18.42;9.65;;;19.50;99.90;;;;;;7368749;19;20039;-68
2021/09/05 11:20:50;;;;;;;18.50;9.05;;;19.30;99.90;;;;;;7372531;19;20148;-68
2021/09/05 11:23:16;;;;;;;25.15;10.65;;;19.30;99.90;;;;;;7371530;19;20020;-68
2021/09/05 11:25:43;;;;;;;21.95;9.77;;;19.20;99.90;;;;;;7371311;19;20082;-68
2021/09/05 11:28:09;;;;;;;16.75;9.63;;;19.20;99.90;;;;;;7372181;19;20463;-69
2021/09/05 11:30:36;;;;;;;18.20;9.30;;;19.20;99.90;;;;;;7371609;19;20384;-69
2021/09/05 11:33:01;;;;;;;16.27;9.02;;;19.20;99.90;;;;;;7371378;19;20528;-69
2021/09/05 11:35:27;;;;;;;18.00;10.43;;;19.30;99.90;;;;;;7370206;19;20092;-69
2021/09/05 11:37:54;;;;;;;19.92;9.27;;;19.40;99.90;;;;;;7371166;19;20018;-69
2021/09/05 11:40:20;;;;;;;34.67;20.65;;;19.60;99.90;;;;;;7372147;19;20853;-69
2021/09/05 11:42:46;;;;;;;32.28;15.68;;;19.70;99.90;;;;;;7369285;19;20048;-69
2021/09/05 11:45:14;;;;;;;18.85;8.80;;;19.60;99.90;;;;;;7373613;19;20022;-69
2021/09/05 11:47:40;;;;;;;23.90;13.48;;;19.40;99.90;;;;;;7370838;19;20633;-69
2021/09/05 11:50:08;;;;;;;22.90;11.30;;;19.40;99.90;;;;;;7374605;19;20792;-69
2021/09/05 11:52:34;;;;;;;33.13;16.88;;;19.40;99.90;;;;;;7370399;19;20022;-69
2021/09/05 11:55:01;;;;;;;28.70;13.23;;;19.50;99.90;;;;;;7369476;19;20048;-69
2021/09/05 11:57:28;;;;;;;19.35;10.95;;;19.50;99.90;;;;;;7371377;19;20052;-69
2021/09/05 11:59:54;;;;;;;19.33;11.80;;;19.70;99.90;;;;;;7368754;19;20769;-72
2021/09/05 12:02:19;;;;;;;18.20;10.77;;;19.80;99.90;;;;;;7369356;19;20047;-69
2021/09/05 12:04:46;;;;;;;16.80;9.80;;;19.80;99.90;;;;;;7373194;19;20032;-69
2021/09/05 12:07:12;;;;;;;18.00;9.45;;;19.90;99.90;;;;;;7367889;19;20018;-68
2021/09/05 12:09:38;;;;;;;17.95;9.98;;;19.90;99.90;;;;;;7371129;19;20478;-72
2021/09/05 12:12:03;;;;;;;19.98;10.20;;;19.90;99.90;;;;;;7367421;19;20494;-70
2021/09/05 12:14:30;;;;;;;19.17;9.73;;;20.00;99.90;;;;;;7371381;19;20043;-71
2021/09/05 12:16:55;;;;;;;20.52;10.15;;;19.90;99.90;;;;;;7370667;19;20022;-71
2021/09/05 12:19:21;;;;;;;18.65;8.98;;;19.80;99.90;;;;;;7371163;19;20042;-67
2021/09/05 12:21:47;;;;;;;20.58;11.77;;;19.90;99.90;;;;;;7372271;19;20359;-67
2021/09/05 12:24:14;;;;;;;20.70;11.18;;;20.10;99.90;;;;;;7371395;19;20022;-67
2021/09/05 12:26:40;;;;;;;31.95;17.35;;;;;;;;;;7372803;19;20030;-67
2021/09/05 12:29:06;;;;;;;60.15;25.35;;;;;;;;;;7369904;19;20029;-68
2021/09/05 12:31:32;;;;;;;21.38;10.63;;;20.60;99.90;;;;;;7369761;19;20060;-68
2021/09/05 12:33:58;;;;;;;21.35;10.57;;;20.60;99.90;;;;;;7373896;19;21033;-67
2021/09/05 12:36:23;;;;;;;19.25;10.13;;;20.60;99.90;;;;;;7366857;19;20292;-68
2021/09/05 12:38:49;;;;;;;19.13;10.77;;;20.50;99.90;;;;;;7371655;19;20415;-68
2021/09/05 12:41:16;;;;;;;24.27;11.07;;;;;;;;;;7371943;19;20023;-68
2021/09/05 12:43:42;;;;;;;19.92;9.80;;;21.00;99.90;;;;;;7369915;19;20175;-66
2021/09/05 12:46:09;;;;;;;18.85;10.63;;;;;;;;;;7371306;19;20018;-67